Terminal Aerodrome Forecast
Issued by NWS Jackson, MS

Home | Current Version | Previous Version | Text Only | Print | Product List | Glossary On
Versions: 1 2 3 4 5 6 7 8 9 10 11 12 13 14 15 16 17 18
779
FTUS44 KJAN 241124
TAFMEI
TAF
KMEI 241124Z 2412/2512 19003KT 1/2SM FG OVC002
     FM241400 19005KT 3SM BR OVC015
     FM241500 19015G20KT P6SM BKN040
     FM250000 20008KT P6SM OVC020
     FM250600 32008KT P6SM SCT020=

USA.gov is the U.S. government's official web portal to all federal, state and local government web resources and services.